AirNav   Pilot Hours Calculator
 
 1430 users online  

32NC Hall Field Airport
Parkton, North Carolina, USA

GOING TO PARKTON?


FAA INFORMATION EFFECTIVE 01 DECEMBER 2022

Location

FAA Identifier: 32NC
Lat/Long: 34-53-47.0000N 079-02-35.0000W
34-53.783333N 079-02.583333W
34.8963889,-79.0430556
(estimated)
Elevation: 175 ft. / 53 m (estimated)
Variation: 07W (1995)
From city: 2 miles W of PARKTON, NC
Time zone: UTC -5 (UTC -4 during Daylight Saving Time)
Zip code: 28357

Airport Operations

Airport use: Private use. Permission required prior to landing
Activation date: 03/1998
Control tower: no
ARTCC: WASHINGTON CENTER
FSS: RALEIGH FLIGHT SERVICE STATION
Attendance: UNATNDD
Wind indicator: yes
Segmented circle: no

Airport Communications

WX ASOS at FAY (10 nm NE): 121.25 (910-484-1546)
WX ASOS at MEB (17 nm W): 134.125 (910-844-5338)
WX ASOS at LBT (17 nm S): 134.775 (910-739-7120)

Nearby radio navigation aids

VOR radial/distance  VOR name  Freq  Var
FAYr241/9.8FAYETTEVILLE VOR/DME114.8504W
SDZr129/32.9SANDHILLS VORTAC111.8003W

 
NDB name  Hdg/Dist  Freq  Var  ID
DILLON040/31.227409WDLC -.. .-.. -.-.
CLINTON271/33.841209WCTZ -.-. - --..
HARNETT217/36.941708WHQT .... --.- -
BENNETTSVILLE072/37.823008WBES -... . ...

Airport Services

Runway Information

Runway 3/21

Dimensions: 2000 x 200 ft. / 610 x 61 m
Surface: turf
RUNWAY 3  RUNWAY 21
Traffic pattern: rightleft

Airport Ownership and Management from official FAA records

Ownership: Privately-owned
Owner: JAMES E. HALL, III
270 MALLOY ROAD
LUMBER BRIDGE, NC 28357
Phone 910-624-2644
Manager: JAMES E. HALL, III
270 MALLOY ROAD
LUMBER BRIDGE, NC 28357
Phone 910-624-2644

Airport Operational Statistics

Aircraft based on the field: 7
Single engine airplanes: 7
    

Additional Remarks

FOR CD CTC WASHINGTON ARTCC AT 703-771-3587.

Instrument Procedures

There are no published instrument procedures at 32NC.

Some nearby airports with instrument procedures:

KFAY - Fayetteville Regional Airport/Grannis Field (10 nm NE)
5W4 - P K Airpark (10 nm NW)
KFBG - Simmons Army Airfield (15 nm N)
KPOB - Pope Army Airfield (17 nm N)
KMEB - Laurinburg/Maxton Airport (17 nm W)
KLBT - Lumberton Regional Airport (17 nm S)
 
Loc | Ops | Rwys | IFR | FBO | Links
Com | Nav | Svcs | Stats | Notes
Area around 32NC (Hall Field Airport)
 
Road maps at: MapQuest Bing Google
 
Aerial photo
No photo
 
Sectional chart

 
Airport distance calculator
Flying to Hall Field Airport? Find the distance to fly.

From to 32NC

Sunrise and sunset
Times for 09-Dec-2022
 Local
(UTC-5)
 Zulu
(UTC)
Morning civil twilight06:4511:45
Sunrise07:1312:13
Sunset17:0422:04
Evening civil twilight17:3222:32

Current date and time
Zulu (UTC)  09-Dec-2022 19:29:15
Local (UTC-5)  09-Dec-2022 14:29:15
 
METAR
KFAY 
9nm NE 
091901Z 36006KT 10SM OVC031 14/07 A3017 RMK AO2 T01390072
KFBG 
15nm NE 
091915Z AUTO 03007KT 10SM BKN029 14/07 A3016 RMK AO2 SLP216
KPOB 
16nm N 
091855Z AUTO 04006KT 10SM FEW027 14/06 A3017 RMK AO2 SLP219 T01380059
KMEB 
17nm SW 
091852Z AUTO 06006KT 10SM BKN026 14/07 A3018 RMK AO2 SLP219 T01440072
KLBT 
18nm S 
091917Z AUTO 05008KT 10SM SCT025 OVC036 14/08 A3016 RMK AO2 T01390078 TSNO
TAF
KFAY 
9nm NE 
091740Z 0918/1018 03008KT P6SM SCT020 BKN030 OVC050 FM091900 03008KT P6SM SCT025 BKN035 BKN050 TEMPO 1006/1010 6SM -RA OVC035
KFBG 
15nm NE 
091800Z 0918/1024 04008KT 9999 FEW020 BKN025 QNH3016INS BECMG 0924/1001 04006KT 9999 SCT024 BKN040 QNH3021INS TX13/0920Z TN06/1011Z
KPOB 
16nm N 
091800Z 0918/1024 05007KT 9999 SCT025 BKN035 OVC050 QNH3015INS TX13/0921Z TN06/1011Z LAST NO AMDS AFT 0923 NEXT 1218
KLBT 
18nm S 
091739Z 0918/1018 05008KT P6SM OVC035 FM092000 04007KT P6SM BKN050 FM100200 04003KT P6SM BKN050
NOTAMs
Click for the latest NOTAMs
NOTAMs are issued by the DoD/FAA and will open in a separate window not controlled by AirNav.

 

 
 

Would you like to see your business listed on this page?

 If your business provides an interesting product or service to pilots, flight crews, aircraft, or users of the Hall Field Airport, you should consider listing it here.  To start the listing process, click on the button below
 
Add a business
 

Other Pages about Hall Field Airport

Update a link
 
Copyright © AirNav, LLC. All rights reserved. Privacy Policy  Contact